sensor_id;sensor_type;location;lat;lon;timestamp;P1;durP1;ratioP1;P2;durP2;ratioP2
54460;SDS011;40371;49.414;11.010;2022-08-21T00:01:02;4.87;;;3.50;;
54460;SDS011;40371;49.414;11.010;2022-08-21T00:03:31;3.43;;;3.10;;
54460;SDS011;40371;49.414;11.010;2022-08-21T00:05:57;4.30;;;3.90;;
54460;SDS011;40371;49.414;11.010;2022-08-21T00:08:23;3.40;;;3.20;;
54460;SDS011;40371;49.414;11.010;2022-08-21T00:10:49;4.17;;;3.57;;
54460;SDS011;40371;49.414;11.010;2022-08-21T00:13:16;4.10;;;3.77;;
54460;SDS011;40371;49.414;11.010;2022-08-21T00:15:42;4.83;;;3.37;;
54460;SDS011;40371;49.414;11.010;2022-08-21T00:18:08;3.77;;;3.47;;
54460;SDS011;40371;49.414;11.010;2022-08-21T00:20:36;4.03;;;3.73;;
54460;SDS011;40371;49.414;11.010;2022-08-21T00:23:03;4.27;;;3.80;;
54460;SDS011;40371;49.414;11.010;2022-08-21T00:25:29;4.17;;;3.77;;
54460;SDS011;40371;49.414;11.010;2022-08-21T00:27:55;3.60;;;3.40;;
54460;SDS011;40371;49.414;11.010;2022-08-21T00:30:22;4.07;;;3.70;;
54460;SDS011;40371;49.414;11.010;2022-08-21T00:32:51;4.17;;;3.80;;
54460;SDS011;40371;49.414;11.010;2022-08-21T00:35:19;3.60;;;3.40;;
54460;SDS011;40371;49.414;11.010;2022-08-21T00:37:47;3.87;;;3.47;;
54460;SDS011;40371;49.414;11.010;2022-08-21T00:40:15;3.90;;;3.60;;
54460;SDS011;40371;49.414;11.010;2022-08-21T00:42:42;3.80;;;3.50;;
54460;SDS011;40371;49.414;11.010;2022-08-21T00:45:09;4.40;;;4.10;;
54460;SDS011;40371;49.414;11.010;2022-08-21T00:47:35;4.63;;;4.10;;
54460;SDS011;40371;49.414;11.010;2022-08-21T00:50:02;4.17;;;3.77;;
54460;SDS011;40371;49.414;11.010;2022-08-21T00:52:30;4.07;;;3.77;;
54460;SDS011;40371;49.414;11.010;2022-08-21T00:54:58;5.10;;;4.07;;
54460;SDS011;40371;49.414;11.010;2022-08-21T00:57:29;3.90;;;3.60;;
54460;SDS011;40371;49.414;11.010;2022-08-21T00:59:58;4.10;;;3.80;;
54460;SDS011;40371;49.414;11.010;2022-08-21T01:02:26;3.97;;;3.67;;
54460;SDS011;40371;49.414;11.010;2022-08-21T01:04:52;4.30;;;4.00;;
54460;SDS011;40371;49.414;11.010;2022-08-21T01:07:18;4.67;;;3.97;;
54460;SDS011;40371;49.414;11.010;2022-08-21T01:09:45;5.70;;;4.40;;
54460;SDS011;40371;49.414;11.010;2022-08-21T01:12:12;5.13;;;3.93;;
54460;SDS011;40371;49.414;11.010;2022-08-21T01:14:40;4.30;;;3.90;;
54460;SDS011;40371;49.414;11.010;2022-08-21T01:17:07;4.20;;;3.80;;
54460;SDS011;40371;49.414;11.010;2022-08-21T01:19:34;4.30;;;3.97;;
54460;SDS011;40371;49.414;11.010;2022-08-21T01:21:59;4.53;;;4.13;;
54460;SDS011;40371;49.414;11.010;2022-08-21T01:24:25;4.10;;;3.60;;
54460;SDS011;40371;49.414;11.010;2022-08-21T01:26:51;4.43;;;4.00;;
54460;SDS011;40371;49.414;11.010;2022-08-21T01:29:38;4.33;;;3.93;;
54460;SDS011;40371;49.414;11.010;2022-08-21T01:32:10;4.70;;;4.37;;
54460;SDS011;40371;49.414;11.010;2022-08-21T01:34:40;4.27;;;3.90;;
54460;SDS011;40371;49.414;11.010;2022-08-21T01:37:07;4.00;;;3.70;;
54460;SDS011;40371;49.414;11.010;2022-08-21T01:39:34;4.13;;;3.83;;
54460;SDS011;40371;49.414;11.010;2022-08-21T01:42:01;4.47;;;4.17;;
54460;SDS011;40371;49.414;11.010;2022-08-21T01:44:27;4.40;;;4.00;;
54460;SDS011;40371;49.414;11.010;2022-08-21T01:46:53;4.60;;;4.20;;
54460;SDS011;40371;49.414;11.010;2022-08-21T01:49:20;7.17;;;4.60;;
54460;SDS011;40371;49.414;11.010;2022-08-21T01:51:46;4.60;;;4.20;;
54460;SDS011;40371;49.414;11.010;2022-08-21T01:54:12;5.53;;;4.20;;
54460;SDS011;40371;49.414;11.010;2022-08-21T01:56:39;4.33;;;3.93;;
54460;SDS011;40371;49.414;11.010;2022-08-21T01:59:07;5.97;;;4.60;;
54460;SDS011;40371;49.414;11.010;2022-08-21T02:01:33;4.73;;;4.20;;
54460;SDS011;40371;49.414;11.010;2022-08-21T02:03:59;5.00;;;4.50;;
54460;SDS011;40371;49.414;11.010;2022-08-21T02:06:25;7.63;;;4.73;;
54460;SDS011;40371;49.414;11.010;2022-08-21T02:08:51;7.90;;;4.63;;
54460;SDS011;40371;49.414;11.010;2022-08-21T02:11:18;6.87;;;4.70;;
54460;SDS011;40371;49.414;11.010;2022-08-21T02:13:44;6.63;;;4.63;;
54460;SDS011;40371;49.414;11.010;2022-08-21T02:16:09;5.07;;;4.57;;
54460;SDS011;40371;49.414;11.010;2022-08-21T02:18:36;5.33;;;4.83;;
54460;SDS011;40371;49.414;11.010;2022-08-21T02:21:02;5.90;;;5.30;;
54460;SDS011;40371;49.414;11.010;2022-08-21T02:23:29;4.93;;;4.53;;
54460;SDS011;40371;49.414;11.010;2022-08-21T02:25:56;5.20;;;4.70;;
54460;SDS011;40371;49.414;11.010;2022-08-21T02:28:26;5.70;;;5.07;;
54460;SDS011;40371;49.414;11.010;2022-08-21T02:30:53;5.00;;;4.60;;
54460;SDS011;40371;49.414;11.010;2022-08-21T02:33:19;5.30;;;4.83;;
54460;SDS011;40371;49.414;11.010;2022-08-21T02:35:46;4.93;;;4.53;;
54460;SDS011;40371;49.414;11.010;2022-08-21T02:38:16;5.03;;;4.50;;
54460;SDS011;40371;49.414;11.010;2022-08-21T02:40:44;7.10;;;4.47;;
54460;SDS011;40371;49.414;11.010;2022-08-21T02:43:13;5.37;;;4.77;;
54460;SDS011;40371;49.414;11.010;2022-08-21T02:45:40;4.40;;;4.10;;
54460;SDS011;40371;49.414;11.010;2022-08-21T02:48:08;4.30;;;4.00;;
54460;SDS011;40371;49.414;11.010;2022-08-21T02:50:40;4.73;;;4.33;;
54460;SDS011;40371;49.414;11.010;2022-08-21T02:53:09;4.77;;;4.10;;
54460;SDS011;40371;49.414;11.010;2022-08-21T02:55:36;5.70;;;4.57;;
54460;SDS011;40371;49.414;11.010;2022-08-21T02:58:03;5.20;;;4.77;;
54460;SDS011;40371;49.414;11.010;2022-08-21T03:00:30;4.40;;;4.10;;
54460;SDS011;40371;49.414;11.010;2022-08-21T03:02:58;4.83;;;4.43;;
54460;SDS011;40371;49.414;11.010;2022-08-21T03:05:24;6.57;;;4.50;;
54460;SDS011;40371;49.414;11.010;2022-08-21T03:07:52;5.30;;;4.67;;
54460;SDS011;40371;49.414;11.010;2022-08-21T03:10:20;5.23;;;4.83;;
54460;SDS011;40371;49.414;11.010;2022-08-21T03:12:47;5.23;;;4.80;;
54460;SDS011;40371;49.414;11.010;2022-08-21T03:15:14;5.23;;;4.80;;
54460;SDS011;40371;49.414;11.010;2022-08-21T03:17:43;4.90;;;4.60;;
54460;SDS011;40371;49.414;11.010;2022-08-21T03:20:09;8.60;;;5.40;;
54460;SDS011;40371;49.414;11.010;2022-08-21T03:22:35;9.97;;;6.67;;
54460;SDS011;40371;49.414;11.010;2022-08-21T03:25:01;8.43;;;7.63;;
54460;SDS011;40371;49.414;11.010;2022-08-21T03:27:27;8.27;;;7.40;;
54460;SDS011;40371;49.414;11.010;2022-08-21T03:29:54;9.10;;;7.97;;
54460;SDS011;40371;49.414;11.010;2022-08-21T03:32:20;8.67;;;7.63;;
54460;SDS011;40371;49.414;11.010;2022-08-21T03:34:46;8.97;;;7.83;;
54460;SDS011;40371;49.414;11.010;2022-08-21T03:37:13;8.57;;;7.47;;
54460;SDS011;40371;49.414;11.010;2022-08-21T03:39:39;10.30;;;8.60;;
54460;SDS011;40371;49.414;11.010;2022-08-21T03:42:06;10.80;;;9.37;;
54460;SDS011;40371;49.414;11.010;2022-08-21T03:44:32;9.30;;;8.47;;
54460;SDS011;40371;49.414;11.010;2022-08-21T03:46:59;9.03;;;8.23;;
54460;SDS011;40371;49.414;11.010;2022-08-21T03:49:25;9.87;;;8.00;;
54460;SDS011;40371;49.414;11.010;2022-08-21T03:51:51;9.43;;;7.90;;
54460;SDS011;40371;49.414;11.010;2022-08-21T03:54:17;9.13;;;8.10;;
54460;SDS011;40371;49.414;11.010;2022-08-21T03:56:43;11.53;;;8.20;;
54460;SDS011;40371;49.414;11.010;2022-08-21T03:59:08;10.67;;;8.27;;
54460;SDS011;40371;49.414;11.010;2022-08-21T04:01:35;7.80;;;7.10;;
54460;SDS011;40371;49.414;11.010;2022-08-21T04:04:01;8.03;;;7.23;;
54460;SDS011;40371;49.414;11.010;2022-08-21T04:06:27;15.43;;;7.17;;
54460;SDS011;40371;49.414;11.010;2022-08-21T04:08:53;9.53;;;7.53;;
54460;SDS011;40371;49.414;11.010;2022-08-21T04:11:19;8.20;;;7.40;;
54460;SDS011;40371;49.414;11.010;2022-08-21T04:13:45;7.37;;;6.53;;
54460;SDS011;40371;49.414;11.010;2022-08-21T04:16:12;6.53;;;5.83;;
54460;SDS011;40371;49.414;11.010;2022-08-21T04:18:38;5.97;;;5.43;;
54460;SDS011;40371;49.414;11.010;2022-08-21T04:21:04;12.40;;;7.10;;
54460;SDS011;40371;49.414;11.010;2022-08-21T04:23:32;12.30;;;7.30;;
54460;SDS011;40371;49.414;11.010;2022-08-21T04:25:58;14.97;;;8.03;;
54460;SDS011;40371;49.414;11.010;2022-08-21T04:28:24;16.53;;;7.27;;
54460;SDS011;40371;49.414;11.010;2022-08-21T04:30:50;17.33;;;8.30;;
54460;SDS011;40371;49.414;11.010;2022-08-21T04:33:17;12.97;;;8.07;;
54460;SDS011;40371;49.414;11.010;2022-08-21T04:35:43;8.80;;;8.00;;
54460;SDS011;40371;49.414;11.010;2022-08-21T04:38:08;15.73;;;8.63;;
54460;SDS011;40371;49.414;11.010;2022-08-21T04:40:34;7.40;;;6.80;;
54460;SDS011;40371;49.414;11.010;2022-08-21T04:43:01;11.17;;;6.90;;
54460;SDS011;40371;49.414;11.010;2022-08-21T04:45:30;6.90;;;6.40;;
54460;SDS011;40371;49.414;11.010;2022-08-21T04:47:59;8.00;;;6.87;;
54460;SDS011;40371;49.414;11.010;2022-08-21T04:50:28;19.70;;;7.10;;
54460;SDS011;40371;49.414;11.010;2022-08-21T04:53:13;19.57;;;6.97;;
54460;SDS011;40371;49.414;11.010;2022-08-21T04:55:45;7.37;;;6.77;;
54460;SDS011;40371;49.414;11.010;2022-08-21T04:58:13;16.27;;;6.30;;
54460;SDS011;40371;49.414;11.010;2022-08-21T05:00:42;7.33;;;6.73;;
54460;SDS011;40371;49.414;11.010;2022-08-21T05:03:09;9.73;;;6.50;;
54460;SDS011;40371;49.414;11.010;2022-08-21T05:05:36;8.77;;;5.80;;
54460;SDS011;40371;49.414;11.010;2022-08-21T05:08:02;6.87;;;5.43;;
54460;SDS011;40371;49.414;11.010;2022-08-21T05:10:28;6.17;;;5.60;;
54460;SDS011;40371;49.414;11.010;2022-08-21T05:12:54;12.43;;;6.17;;
54460;SDS011;40371;49.414;11.010;2022-08-21T05:15:20;6.20;;;5.43;;
54460;SDS011;40371;49.414;11.010;2022-08-21T05:17:46;9.30;;;5.80;;
54460;SDS011;40371;49.414;11.010;2022-08-21T05:20:12;17.93;;;6.33;;
54460;SDS011;40371;49.414;11.010;2022-08-21T05:22:38;7.27;;;6.30;;
54460;SDS011;40371;49.414;11.010;2022-08-21T05:25:04;11.03;;;6.67;;
54460;SDS011;40371;49.414;11.010;2022-08-21T05:27:31;6.70;;;6.00;;
54460;SDS011;40371;49.414;11.010;2022-08-21T05:29:57;7.03;;;6.33;;
54460;SDS011;40371;49.414;11.010;2022-08-21T05:32:23;6.73;;;6.07;;
54460;SDS011;40371;49.414;11.010;2022-08-21T05:34:49;5.97;;;5.37;;
54460;SDS011;40371;49.414;11.010;2022-08-21T05:37:15;6.83;;;6.30;;
54460;SDS011;40371;49.414;11.010;2022-08-21T05:39:41;6.63;;;6.10;;
54460;SDS011;40371;49.414;11.010;2022-08-21T05:42:06;5.83;;;5.43;;
54460;SDS011;40371;49.414;11.010;2022-08-21T05:44:32;6.50;;;6.03;;
54460;SDS011;40371;49.414;11.010;2022-08-21T05:47:02;8.53;;;7.20;;
54460;SDS011;40371;49.414;11.010;2022-08-21T05:49:29;8.57;;;6.50;;
54460;SDS011;40371;49.414;11.010;2022-08-21T05:51:55;14.23;;;6.63;;
54460;SDS011;40371;49.414;11.010;2022-08-21T05:54:20;14.00;;;6.37;;
54460;SDS011;40371;49.414;11.010;2022-08-21T05:56:46;13.37;;;6.50;;
54460;SDS011;40371;49.414;11.010;2022-08-21T05:59:11;7.17;;;6.57;;
54460;SDS011;40371;49.414;11.010;2022-08-21T06:01:38;6.47;;;5.80;;
54460;SDS011;40371;49.414;11.010;2022-08-21T06:04:04;6.67;;;6.17;;
54460;SDS011;40371;49.414;11.010;2022-08-21T06:06:30;7.37;;;6.43;;
54460;SDS011;40371;49.414;11.010;2022-08-21T06:08:56;6.57;;;6.00;;
54460;SDS011;40371;49.414;11.010;2022-08-21T06:11:21;6.70;;;6.10;;
54460;SDS011;40371;49.414;11.010;2022-08-21T06:13:47;7.30;;;6.60;;
54460;SDS011;40371;49.414;11.010;2022-08-21T06:16:13;7.10;;;6.60;;
54460;SDS011;40371;49.414;11.010;2022-08-21T06:18:40;7.20;;;6.60;;
54460;SDS011;40371;49.414;11.010;2022-08-21T06:21:06;6.47;;;5.97;;
54460;SDS011;40371;49.414;11.010;2022-08-21T06:23:33;6.40;;;5.90;;
54460;SDS011;40371;49.414;11.010;2022-08-21T06:26:00;6.50;;;6.00;;
54460;SDS011;40371;49.414;11.010;2022-08-21T06:28:26;6.63;;;6.13;;
54460;SDS011;40371;49.414;11.010;2022-08-21T06:30:52;6.70;;;6.20;;
54460;SDS011;40371;49.414;11.010;2022-08-21T06:33:18;7.47;;;6.87;;
54460;SDS011;40371;49.414;11.010;2022-08-21T06:35:43;6.67;;;6.17;;
54460;SDS011;40371;49.414;11.010;2022-08-21T06:38:09;6.50;;;6.00;;
54460;SDS011;40371;49.414;11.010;2022-08-21T06:40:35;7.23;;;6.63;;
54460;SDS011;40371;49.414;11.010;2022-08-21T06:43:34;7.63;;;7.03;;
54460;SDS011;40371;49.414;11.010;2022-08-21T06:45:52;7.30;;;6.70;;
54460;SDS011;40371;49.414;11.010;2022-08-21T06:48:18;7.23;;;6.63;;
54460;SDS011;40371;49.414;11.010;2022-08-21T06:50:44;7.60;;;7.00;;
54460;SDS011;40371;49.414;11.010;2022-08-21T06:53:11;8.03;;;7.23;;
54460;SDS011;40371;49.414;11.010;2022-08-21T06:55:38;7.60;;;7.00;;
54460;SDS011;40371;49.414;11.010;2022-08-21T06:58:04;12.10;;;6.70;;
54460;SDS011;40371;49.414;11.010;2022-08-21T07:00:31;8.10;;;7.40;;
54460;SDS011;40371;49.414;11.010;2022-08-21T07:02:57;9.57;;;8.43;;
54460;SDS011;40371;49.414;11.010;2022-08-21T07:05:27;9.43;;;8.60;;
54460;SDS011;40371;49.414;11.010;2022-08-21T07:07:54;8.83;;;8.03;;
54460;SDS011;40371;49.414;11.010;2022-08-21T07:10:19;9.70;;;8.90;;
54460;SDS011;40371;49.414;11.010;2022-08-21T07:12:45;8.47;;;7.77;;
54460;SDS011;40371;49.414;11.010;2022-08-21T07:15:11;8.70;;;8.00;;
54460;SDS011;40371;49.414;11.010;2022-08-21T07:17:36;7.83;;;7.23;;
54460;SDS011;40371;49.414;11.010;2022-08-21T07:20:03;8.70;;;7.90;;
54460;SDS011;40371;49.414;11.010;2022-08-21T07:22:30;8.73;;;8.03;;
54460;SDS011;40371;49.414;11.010;2022-08-21T07:24:56;9.83;;;8.83;;
54460;SDS011;40371;49.414;11.010;2022-08-21T07:27:21;10.43;;;9.63;;
54460;SDS011;40371;49.414;11.010;2022-08-21T07:29:47;32.97;;;29.73;;
54460;SDS011;40371;49.414;11.010;2022-08-21T07:32:13;11.50;;;10.50;;
54460;SDS011;40371;49.414;11.010;2022-08-21T07:34:40;11.60;;;10.33;;
54460;SDS011;40371;49.414;11.010;2022-08-21T07:37:06;19.33;;;17.60;;
54460;SDS011;40371;49.414;11.010;2022-08-21T07:39:31;10.37;;;9.43;;
54460;SDS011;40371;49.414;11.010;2022-08-21T07:41:57;14.40;;;13.00;;
54460;SDS011;40371;49.414;11.010;2022-08-21T07:44:23;10.43;;;9.53;;
54460;SDS011;40371;49.414;11.010;2022-08-21T07:46:48;10.13;;;9.33;;
54460;SDS011;40371;49.414;11.010;2022-08-21T07:49:14;12.23;;;11.07;;
54460;SDS011;40371;49.414;11.010;2022-08-21T07:51:39;9.53;;;8.77;;
54460;SDS011;40371;49.414;11.010;2022-08-21T07:54:05;11.60;;;10.60;;
54460;SDS011;40371;49.414;11.010;2022-08-21T07:56:31;12.47;;;11.40;;
54460;SDS011;40371;49.414;11.010;2022-08-21T07:58:57;10.70;;;9.90;;
54460;SDS011;40371;49.414;11.010;2022-08-21T08:01:23;12.03;;;11.00;;
54460;SDS011;40371;49.414;11.010;2022-08-21T08:03:49;13.27;;;12.07;;
54460;SDS011;40371;49.414;11.010;2022-08-21T08:06:15;10.90;;;9.90;;
54460;SDS011;40371;49.414;11.010;2022-08-21T08:08:43;11.60;;;10.63;;
54460;SDS011;40371;49.414;11.010;2022-08-21T08:11:10;12.13;;;11.13;;
54460;SDS011;40371;49.414;11.010;2022-08-21T08:13:40;11.30;;;10.23;;
54460;SDS011;40371;49.414;11.010;2022-08-21T08:16:07;11.07;;;9.97;;
54460;SDS011;40371;49.414;11.010;2022-08-21T08:18:33;11.87;;;10.57;;
54460;SDS011;40371;49.414;11.010;2022-08-21T08:20:58;10.30;;;9.50;;
54460;SDS011;40371;49.414;11.010;2022-08-21T08:23:24;11.87;;;10.67;;
54460;SDS011;40371;49.414;11.010;2022-08-21T08:25:50;10.87;;;10.03;;
54460;SDS011;40371;49.414;11.010;2022-08-21T08:28:16;10.90;;;10.00;;
54460;SDS011;40371;49.414;11.010;2022-08-21T08:30:41;10.97;;;10.17;;
54460;SDS011;40371;49.414;11.010;2022-08-21T08:33:07;9.57;;;8.83;;
54460;SDS011;40371;49.414;11.010;2022-08-21T08:35:33;10.20;;;9.40;;
54460;SDS011;40371;49.414;11.010;2022-08-21T08:37:59;10.27;;;9.47;;
54460;SDS011;40371;49.414;11.010;2022-08-21T08:40:28;24.40;;;22.23;;
54460;SDS011;40371;49.414;11.010;2022-08-21T08:43:06;13.50;;;12.40;;
54460;SDS011;40371;49.414;11.010;2022-08-21T08:45:34;15.97;;;14.57;;
54460;SDS011;40371;49.414;11.010;2022-08-21T08:48:03;9.93;;;9.20;;
54460;SDS011;40371;49.414;11.010;2022-08-21T08:50:47;10.20;;;9.40;;
54460;SDS011;40371;49.414;11.010;2022-08-21T08:53:23;12.63;;;11.53;;
54460;SDS011;40371;49.414;11.010;2022-08-21T08:56:02;13.27;;;12.17;;
54460;SDS011;40371;49.414;11.010;2022-08-21T08:58:30;11.53;;;10.53;;
54460;SDS011;40371;49.414;11.010;2022-08-21T09:00:58;12.43;;;11.40;;
54460;SDS011;40371;49.414;11.010;2022-08-21T09:03:25;12.83;;;11.73;;
54460;SDS011;40371;49.414;11.010;2022-08-21T09:05:57;10.60;;;9.80;;
54460;SDS011;40371;49.414;11.010;2022-08-21T09:11:27;10.87;;;9.97;;
54460;SDS011;40371;49.414;11.010;2022-08-21T09:16:56;24.20;;;22.03;;
54460;SDS011;40371;49.414;11.010;2022-08-21T09:27:53;18.33;;;16.70;;
54460;SDS011;40371;49.414;11.010;2022-08-21T09:30:19;12.43;;;11.33;;
54460;SDS011;40371;49.414;11.010;2022-08-21T09:32:51;11.27;;;10.27;;
54460;SDS011;40371;49.414;11.010;2022-08-21T09:35:17;10.83;;;9.73;;
54460;SDS011;40371;49.414;11.010;2022-08-21T09:37:48;29.67;;;21.70;;
54460;SDS011;40371;49.414;11.010;2022-08-21T09:40:19;34.77;;;22.37;;
54460;SDS011;40371;49.414;11.010;2022-08-21T09:43:02;75.53;;;30.57;;
54460;SDS011;40371;49.414;11.010;2022-08-21T09:45:34;31.67;;;14.10;;
54460;SDS011;40371;49.414;11.010;2022-08-21T09:48:10;29.80;;;19.92;;
54460;SDS011;40371;49.414;11.010;2022-08-21T09:50:37;7.15;;;6.55;;
54460;SDS011;40371;49.414;11.010;2022-08-21T09:53:04;7.20;;;6.60;;
54460;SDS011;40371;49.414;11.010;2022-08-21T09:55:46;12.00;;;10.90;;
54460;SDS011;40371;49.414;11.010;2022-08-21T09:58:35;7.28;;;6.78;;
54460;SDS011;40371;49.414;11.010;2022-08-21T10:01:04;9.90;;;9.02;;
54460;SDS011;40371;49.414;11.010;2022-08-21T10:03:30;6.97;;;6.47;;
54460;SDS011;40371;49.414;11.010;2022-08-21T10:08:32;4.80;;;4.55;;
54460;SDS011;40371;49.414;11.010;2022-08-21T10:11:06;15.13;;;13.82;;
54460;SDS011;40371;49.414;11.010;2022-08-21T10:13:43;11.95;;;11.05;;
54460;SDS011;40371;49.414;11.010;2022-08-21T10:16:55;5.60;;;5.30;;
54460;SDS011;40371;49.414;11.010;2022-08-21T10:25:17;6.15;;;5.70;;
54460;SDS011;40371;49.414;11.010;2022-08-21T10:30:35;4.85;;;4.55;;
54460;SDS011;40371;49.414;11.010;2022-08-21T10:35:44;4.90;;;4.60;;
54460;SDS011;40371;49.414;11.010;2022-08-21T10:41:21;4.63;;;4.32;;
54460;SDS011;40371;49.414;11.010;2022-08-21T10:44:12;3.30;;;3.10;;
54460;SDS011;40371;49.414;11.010;2022-08-21T10:47:05;4.07;;;3.88;;
54460;SDS011;40371;49.414;11.010;2022-08-21T10:55:19;5.05;;;4.60;;
54460;SDS011;40371;49.414;11.010;2022-08-21T10:57:49;6.15;;;5.65;;
54460;SDS011;40371;49.414;11.010;2022-08-21T11:00:22;16.17;;;15.00;;
54460;SDS011;40371;49.414;11.010;2022-08-21T11:05:39;3.65;;;3.50;;
54460;SDS011;40371;49.414;11.010;2022-08-21T11:08:15;3.83;;;3.63;;
54460;SDS011;40371;49.414;11.010;2022-08-21T11:10:57;3.45;;;3.30;;
54460;SDS011;40371;49.414;11.010;2022-08-21T11:13:41;3.33;;;3.03;;
54460;SDS011;40371;49.414;11.010;2022-08-21T11:19:00;3.72;;;3.53;;
54460;SDS011;40371;49.414;11.010;2022-08-21T11:21:41;7.55;;;6.95;;
54460;SDS011;40371;49.414;11.010;2022-08-21T11:27:00;4.93;;;4.63;;
54460;SDS011;40371;49.414;11.010;2022-08-21T11:29:40;3.03;;;2.90;;
54460;SDS011;40371;49.414;11.010;2022-08-21T11:40:31;2.55;;;2.45;;
54460;SDS011;40371;49.414;11.010;2022-08-21T11:45:51;2.67;;;2.55;;
54460;SDS011;40371;49.414;11.010;2022-08-21T11:50:45;2.40;;;2.30;;
54460;SDS011;40371;49.414;11.010;2022-08-21T11:53:18;2.38;;;2.25;;
54460;SDS011;40371;49.414;11.010;2022-08-21T11:55:52;2.70;;;2.60;;
54460;SDS011;40371;49.414;11.010;2022-08-21T11:58:41;2.20;;;2.10;;
54460;SDS011;40371;49.414;11.010;2022-08-21T12:01:11;2.47;;;2.38;;
54460;SDS011;40371;49.414;11.010;2022-08-21T12:03:51;2.70;;;2.60;;
54460;SDS011;40371;49.414;11.010;2022-08-21T12:06:38;2.75;;;2.65;;
54460;SDS011;40371;49.414;11.010;2022-08-21T12:09:08;3.35;;;2.83;;
54460;SDS011;40371;49.414;11.010;2022-08-21T12:11:49;3.05;;;2.72;;
54460;SDS011;40371;49.414;11.010;2022-08-21T12:14:17;2.50;;;2.40;;
54460;SDS011;40371;49.414;11.010;2022-08-21T12:16:47;2.60;;;2.40;;
54460;SDS011;40371;49.414;11.010;2022-08-21T12:19:28;2.70;;;2.60;;
54460;SDS011;40371;49.414;11.010;2022-08-21T12:22:06;2.35;;;2.17;;
54460;SDS011;40371;49.414;11.010;2022-08-21T12:24:39;2.60;;;2.40;;
54460;SDS011;40371;49.414;11.010;2022-08-21T12:27:19;2.50;;;2.30;;
54460;SDS011;40371;49.414;11.010;2022-08-21T12:35:14;2.90;;;2.70;;
54460;SDS011;40371;49.414;11.010;2022-08-21T12:37:50;3.33;;;2.83;;
54460;SDS011;40371;49.414;11.010;2022-08-21T12:40:27;3.38;;;3.08;;
54460;SDS011;40371;49.414;11.010;2022-08-21T12:43:16;2.60;;;2.40;;
54460;SDS011;40371;49.414;11.010;2022-08-21T12:45:46;2.75;;;2.58;;
54460;SDS011;40371;49.414;11.010;2022-08-21T12:48:26;2.90;;;2.70;;
54460;SDS011;40371;49.414;11.010;2022-08-21T12:51:04;3.38;;;3.08;;
54460;SDS011;40371;49.414;11.010;2022-08-21T12:53:50;2.95;;;2.75;;
54460;SDS011;40371;49.414;11.010;2022-08-21T12:56:20;7.07;;;6.43;;
54460;SDS011;40371;49.414;11.010;2022-08-21T12:58:55;2.80;;;2.58;;
54460;SDS011;40371;49.414;11.010;2022-08-21T13:01:43;2.92;;;2.75;;
54460;SDS011;40371;49.414;11.010;2022-08-21T13:04:14;3.20;;;3.00;;
54460;SDS011;40371;49.414;11.010;2022-08-21T13:06:43;2.92;;;2.72;;
54460;SDS011;40371;49.414;11.010;2022-08-21T13:09:12;2.65;;;2.45;;
54460;SDS011;40371;49.414;11.010;2022-08-21T13:11:42;3.33;;;3.00;;
54460;SDS011;40371;49.414;11.010;2022-08-21T13:14:14;3.95;;;3.65;;
54460;SDS011;40371;49.414;11.010;2022-08-21T13:16:47;3.65;;;3.45;;
54460;SDS011;40371;49.414;11.010;2022-08-21T13:19:21;3.67;;;3.45;;
54460;SDS011;40371;49.414;11.010;2022-08-21T13:21:48;3.22;;;2.92;;
54460;SDS011;40371;49.414;11.010;2022-08-21T13:26:43;2.47;;;2.38;;
54460;SDS011;40371;49.414;11.010;2022-08-21T13:29:09;3.03;;;2.83;;
54460;SDS011;40371;49.414;11.010;2022-08-21T13:31:37;3.30;;;3.10;;
54460;SDS011;40371;49.414;11.010;2022-08-21T13:34:07;3.55;;;3.17;;
54460;SDS011;40371;49.414;11.010;2022-08-21T13:36:36;3.55;;;2.97;;
54460;SDS011;40371;49.414;11.010;2022-08-21T13:39:07;3.00;;;2.80;;
54460;SDS011;40371;49.414;11.010;2022-08-21T13:41:35;2.80;;;2.70;;
54460;SDS011;40371;49.414;11.010;2022-08-21T13:44:14;3.10;;;2.90;;
54460;SDS011;40371;49.414;11.010;2022-08-21T13:46:43;2.83;;;2.63;;
54460;SDS011;40371;49.414;11.010;2022-08-21T13:49:09;2.78;;;2.67;;
54460;SDS011;40371;49.414;11.010;2022-08-21T13:51:37;3.22;;;3.00;;
54460;SDS011;40371;49.414;11.010;2022-08-21T13:54:15;2.85;;;2.72;;
54460;SDS011;40371;49.414;11.010;2022-08-21T13:56:42;3.28;;;3.08;;
54460;SDS011;40371;49.414;11.010;2022-08-21T13:59:09;3.15;;;2.95;;
54460;SDS011;40371;49.414;11.010;2022-08-21T14:01:36;3.05;;;2.72;;
54460;SDS011;40371;49.414;11.010;2022-08-21T14:04:18;3.08;;;2.88;;
54460;SDS011;40371;49.414;11.010;2022-08-21T14:06:49;3.13;;;2.92;;
54460;SDS011;40371;49.414;11.010;2022-08-21T14:11:56;2.80;;;2.60;;
54460;SDS011;40371;49.414;11.010;2022-08-21T14:14:24;3.08;;;2.80;;
54460;SDS011;40371;49.414;11.010;2022-08-21T14:19:22;3.45;;;3.25;;
54460;SDS011;40371;49.414;11.010;2022-08-21T14:21:50;3.08;;;2.88;;
54460;SDS011;40371;49.414;11.010;2022-08-21T14:26:49;6.75;;;2.70;;
54460;SDS011;40371;49.414;11.010;2022-08-21T14:29:17;3.72;;;2.60;;
54460;SDS011;40371;49.414;11.010;2022-08-21T14:31:49;2.70;;;2.50;;
54460;SDS011;40371;49.414;11.010;2022-08-21T14:34:21;3.10;;;2.90;;
54460;SDS011;40371;49.414;11.010;2022-08-21T14:36:51;3.28;;;3.08;;
54460;SDS011;40371;49.414;11.010;2022-08-21T14:39:17;5.72;;;5.28;;
54460;SDS011;40371;49.414;11.010;2022-08-21T14:41:43;5.47;;;5.00;;
54460;SDS011;40371;49.414;11.010;2022-08-21T14:44:13;3.70;;;2.67;;
54460;SDS011;40371;49.414;11.010;2022-08-21T14:46:40;3.50;;;2.80;;
54460;SDS011;40371;49.414;11.010;2022-08-21T14:49:06;2.55;;;2.45;;
54460;SDS011;40371;49.414;11.010;2022-08-21T14:51:32;3.05;;;2.83;;
54460;SDS011;40371;49.414;11.010;2022-08-21T14:53:58;4.05;;;2.78;;
54460;SDS011;40371;49.414;11.010;2022-08-21T14:56:24;2.38;;;2.25;;
54460;SDS011;40371;49.414;11.010;2022-08-21T14:58:51;2.58;;;2.38;;
54460;SDS011;40371;49.414;11.010;2022-08-21T15:01:18;2.58;;;2.38;;
54460;SDS011;40371;49.414;11.010;2022-08-21T15:03:46;2.35;;;2.17;;
54460;SDS011;40371;49.414;11.010;2022-08-21T15:06:13;2.85;;;2.65;;
54460;SDS011;40371;49.414;11.010;2022-08-21T15:08:41;2.50;;;2.40;;
54460;SDS011;40371;49.414;11.010;2022-08-21T15:11:07;2.28;;;2.17;;
54460;SDS011;40371;49.414;11.010;2022-08-21T15:13:35;2.53;;;2.33;;
54460;SDS011;40371;49.414;11.010;2022-08-21T15:16:01;2.45;;;2.28;;
54460;SDS011;40371;49.414;11.010;2022-08-21T15:18:28;5.03;;;4.63;;
54460;SDS011;40371;49.414;11.010;2022-08-21T15:20:54;7.63;;;7.03;;
54460;SDS011;40371;49.414;11.010;2022-08-21T15:23:20;2.58;;;2.42;;
54460;SDS011;40371;49.414;11.010;2022-08-21T15:25:46;2.17;;;2.08;;
54460;SDS011;40371;49.414;11.010;2022-08-21T15:28:13;2.63;;;2.40;;
54460;SDS011;40371;49.414;11.010;2022-08-21T15:30:41;2.20;;;2.10;;
54460;SDS011;40371;49.414;11.010;2022-08-21T15:33:08;2.60;;;2.20;;
54460;SDS011;40371;49.414;11.010;2022-08-21T15:35:34;2.40;;;2.20;;
54460;SDS011;40371;49.414;11.010;2022-08-21T15:38:00;2.22;;;2.10;;
54460;SDS011;40371;49.414;11.010;2022-08-21T15:40:27;2.30;;;2.10;;
54460;SDS011;40371;49.414;11.010;2022-08-21T15:42:55;2.53;;;2.33;;
54460;SDS011;40371;49.414;11.010;2022-08-21T15:45:24;2.97;;;2.50;;
54460;SDS011;40371;49.414;11.010;2022-08-21T15:47:50;2.85;;;2.65;;
54460;SDS011;40371;49.414;11.010;2022-08-21T15:50:16;2.45;;;2.35;;
54460;SDS011;40371;49.414;11.010;2022-08-21T15:52:42;3.47;;;3.17;;
54460;SDS011;40371;49.414;11.010;2022-08-21T15:55:08;2.30;;;2.20;;